Rome, Mississippi
Current Conditions -  °F | °C
As of 3:55 PM on Friday 24 Oct 2014 (Local Time) from KRNV Reporting Station
Clear Clear  
Wind Chill: 73°   Ceiling: Unl
Heat Index: 73°   Visibility: 10mi
Dew Point: 52°   Wind: 0mph
Humidity: 47%   Direction: NA
Pressure: 30.09"   Gusts: NA
Location:  33.96°N, 90.48°W
Report Text: KRNV 242055Z AUTO 00000KT 10SM CLR 23/11 A3009 RMK AO2 T02300110
Loading
Personal Weather Stations






























Interactive Weather Map
Tropical Storm Tracking
New forecast layout! Learn more

10-Day Weather Forecast

Advertisements
Track Severe Weather on mobile